Flight Track Log - Related Links

Times and Time Zones

All times are in EDT time to prevent confusion due to time zone crossing. See the ASQ5685 flight status page for this flight to view local times or setup timezone preferences in your user account.

Time Position Orientation Groundspeed Altitude Reporting Facility
EDT Latitude Longitude Course Direction KTS MPH feet Rate Location/Type
Tue 09:34:25 AM 33.6333 -84.4667 53° Northeast 164 189 2,200  Level Atlanta TRACON
Tue 09:35:19 AM 33.6167 -84.5167 248° West 215 247 3,600 2,139 Climbing Atlanta TRACON
Tue 09:36:00 AM 33.8731 -84.1469 54° Northeast  Level Estimated
Tue 09:36:20 AM 33.5667 -84.5667 220° Southwest 246 283 6,300  Level Atlanta TRACON
Tue 09:37:00 AM 33.8709 -84.0135 91° East  Level FlightAware
Tue 09:37:19 AM 33.5000 -84.5833 192° South 275 316 8,900  Level Atlanta TRACON
Tue 09:38:00 AM 33.8685 -83.8801 91° East  Level FlightAware
Tue 09:38:44 AM 33.4553 -84.4619 114° Southeast 323 372 10,600  Level Atlanta Center
Tue 09:39:00 AM 33.9486 -83.7880 53° Northeast  Level Estimated
Tue 09:39:44 AM 33.4578 -84.3325 89° East 366 421 12,300  Level Atlanta Center
Tue 09:40:44 AM 33.5228 -84.2356 51° Northeast 356 410 14,100 1,750 Climbing Atlanta Center
Tue 09:41:44 AM 33.6147 -84.1736 29° Northeast 361 415 15,800 1,500 Climbing Atlanta Center
Tue 09:42:44 AM 33.7128 -84.1111 28° Northeast 379 436 17,100 1,100 Climbing Atlanta Center
Tue 09:44:44 AM 33.8422 -83.8836 56° Northeast 407 468 19,100 967 Climbing Atlanta Center
Tue 09:45:44 AM 33.9025 -83.7661 58° Northeast 414 476 20,000 750 Climbing Atlanta Center
Tue 09:46:44 AM 33.9689 -83.6531 55° Northeast 414 476 20,600 600 Climbing Atlanta Center
Tue 09:47:44 AM 34.0375 -83.5400 54° Northeast 414 476 21,200 650 Climbing Atlanta Center
Tue 09:48:44 AM 34.1142 -83.4192 53° Northeast 414 476 21,900 650 Climbing Atlanta Center
Tue 09:49:44 AM 34.1864 -83.3031 53° Northeast 419 482 22,500 600 Climbing Atlanta Center
Tue 09:50:44 AM 34.2567 -83.1892 53° Northeast 419 482 23,100 600 Climbing Atlanta Center
Tue 09:51:44 AM 34.3289 -83.0753 52° Northeast 419 482 23,700 600 Climbing Atlanta Center
Tue 09:52:44 AM 34.4031 -82.9536 54° Northeast 430 495 24,300 600 Climbing Atlanta Center
Tue 09:53:44 AM 34.4772 -82.8369 52° Northeast 440 506 24,900 600 Climbing Atlanta Center
Tue 09:54:44 AM 34.5531 -82.7172 52° Northeast 446 513 25,500 600 Climbing Atlanta Center
Tue 09:55:44 AM 34.6269 -82.5975 53° Northeast 438 504 26,100 600 Climbing Atlanta Center
Tue 09:56:44 AM 34.7006 -82.4775 53° Northeast 443 510 26,700 600 Climbing Atlanta Center
Tue 09:57:44 AM 34.7742 -82.3547 54° Northeast 443 510 27,300 550 Climbing Atlanta Center
Tue 09:58:44 AM 34.8475 -82.2317 54° Northeast 443 510 27,800 500 Climbing Atlanta Center
Tue 09:59:44 AM 34.9250 -82.1161 51° Northeast 443 510 28,300 500 Climbing Atlanta Center
Tue 10:00:44 AM 35.0000 -81.9875 55° Northeast 449 517 28,800 500 Climbing Atlanta Center
Tue 10:01:44 AM 35.0731 -81.8614 55° Northeast 449 517 29,300 550 Climbing Atlanta Center
Tue 10:02:44 AM 35.1375 -81.7325 59° Northeast 449 517 29,900 550 Climbing Atlanta Center
Tue 10:03:44 AM 35.2081 -81.6011 57° Northeast 454 522 30,400 500 Climbing Atlanta Center
Tue 10:04:44 AM 35.2761 -81.4719 57° Northeast 454 522 30,900 300 Climbing Atlanta Center
Tue 10:05:44 AM 35.3444 -81.3397 58° Northeast 454 522 31,000 50 Climbing Atlanta Center
Tue 10:06:44 AM 35.4122 -81.2050 58° Northeast 459 528 31,000  Level Atlanta Center
Tue 10:07:44 AM 35.4842 -81.0650 58° Northeast 471 542 31,000  Level Atlanta Center
Tue 10:08:44 AM 35.5558 -80.9294 57° Northeast 476 548 31,000  Level Atlanta Center
Tue 10:09:44 AM 35.6253 -80.7967 57° Northeast 463 533 31,000  Level Atlanta Center
Tue 10:10:44 AM 35.6947 -80.6661 57° Northeast 463 533 31,000  Level Atlanta Center
Tue 10:11:44 AM 35.7619 -80.5328 58° Northeast 457 526 31,000  Level Atlanta Center
Tue 10:12:44 AM 35.8292 -80.3992 58° Northeast 457 526 31,000  Level Atlanta Center
Tue 10:13:44 AM 35.8900 -80.2786 58° Northeast 462 532 31,000  Level Atlanta Center
Tue 10:14:44 AM 35.9550 -80.1472 59° Northeast 462 532 31,000  Level Atlanta Center
Tue 10:17:13 AM 36.1289 -79.8353 55° Northeast 446 513 31,000  Level Washington Center
Tue 10:18:13 AM 36.2089 -79.6903 56° Northeast 456 525 31,000  Level Washington Center
Tue 10:19:10 AM 36.2756 -79.5753 54° Northeast 456 525 31,000 -407 Level Washington Center
Tue 10:20:11 AM 36.3531 -79.4322 56° Northeast 456 525 30,200 -1,033 Descending Washington Center
Tue 10:21:12 AM 36.4283 -79.2964 55° Northeast 462 532 28,900 -1,131 Descending Washington Center
Tue 10:22:13 AM 36.5036 -79.1606 55° Northeast 467 537 27,900 -966 Descending Washington Center
Tue 10:23:10 AM 36.5736 -79.0447 53° Northeast 467 537 27,000 -958 Descending Washington Center
Tue 10:24:12 AM 36.6483 -78.9133 55° Northeast 467 537 26,000 -976 Descending Washington Center
Tue 10:25:13 AM 36.7189 -78.7764 57° Northeast 467 537 25,000 -496 Descending Washington Center
Tue 10:26:13 AM 36.7911 -78.6472 55° Northeast 462 532 25,000  Level Washington Center
Tue 10:27:11 AM 36.8675 -78.5075 56° Northeast 444 511 25,000  Level Washington Center
Tue 10:28:12 AM 36.9264 -78.4006 55° Northeast 431 496 25,000  Level Washington Center
Tue 10:29:13 AM 36.9983 -78.2678 56° Northeast 425 489 25,000 -298 Level Washington Center
Tue 10:30:13 AM 37.0731 -78.1819 42° Northeast 414 476 24,400 -821 Descending Washington Center
Tue 10:31:10 AM 37.1686 -78.1097 31° Northeast 394 453 23,400 -1,068 Descending Washington Center
Tue 10:32:11 AM 37.2725 -78.0294 32° Northeast 403 464 22,300 -689 Descending Washington Center
Tue 10:33:12 AM 37.3658 -77.9542 33° Northeast 403 464 22,000 -148 Descending Washington Center
Tue 10:34:13 AM 37.4611 -77.8811 31° Northeast 403 464 22,000 -50 Level Washington Center
Tue 10:35:13 AM 37.5561 -77.8133 29° Northeast 398 458 21,900 -769 Descending Washington Center
Tue 10:36:10 AM 37.6553 -77.7558 25° Northeast 387 445 20,500 -1,576 Descending Washington Center
Tue 10:37:11 AM 37.7500 -77.7008 25° Northeast 376 433 18,800 -1,770 Descending Washington Center
Tue 10:38:12 AM 37.8450 -77.6431 26° Northeast 376 433 16,900 -1,869 Descending Washington Center
Tue 10:39:13 AM 37.9356 -77.5900 25° Northeast 366 421 15,000 -1,916 Descending Washington Center
Tue 10:40:11 AM 38.0239 -77.5397 24° Northeast 354 407 13,100 -1,932 Descending Washington Center
Tue 10:41:11 AM 38.1061 -77.4944 23° Northeast 331 381 11,200 -1,537 Descending Washington Center
Tue 10:42:12 AM 38.1819 -77.4486 25° Northeast 317 365 10,000 -738 Descending Washington Center
Tue 10:43:13 AM 38.2594 -77.4269 12° North 294 338 9,700 -1,160 Descending Washington Center
Tue 10:44:11 AM 38.3406 -77.4314 358° North 279 321 7,700 -1,983 Descending Washington Center
Tue 10:45:11 AM 38.4197 -77.4336 359° North 279 321 5,800 -1,770 Descending Washington Center
Tue 10:46:13 AM 38.4969 -77.4353 359° North 274 315 4,100 -900 Descending Washington Center
Tue 10:47:11 AM 38.5719 -77.4372 359° North 268 308 4,000 -157 Descending Washington Center
Tue 10:48:08 AM 38.6333 -77.4333 North 230 265 3,800 -513 Descending Potomac TRACON
Tue 10:49:08 AM 38.7000 -77.4333 360° North 220 253 3,000 -400 Descending Potomac TRACON
Tue 10:50:08 AM 38.7667 -77.4333 360° North 226 260 3,000  Level Potomac TRACON

Login

Don't have an account? Register now (free) for customized features, flight alerts, and more!